sensor_id;sensor_type;location;lat;lon;timestamp;pressure;altitude;pressure_sealevel;temperature;humidity
46464;BME280;32161;48.148;-1.554;2023-03-13T00:00:12;100102.84;;;13.94;97.90
46464;BME280;32161;48.148;-1.554;2023-03-13T00:02:41;100090.00;;;13.95;97.33
46464;BME280;32161;48.148;-1.554;2023-03-13T00:05:10;100093.53;;;13.90;98.27
46464;BME280;32161;48.148;-1.554;2023-03-13T00:07:39;100083.47;;;13.96;97.34
46464;BME280;32161;48.148;-1.554;2023-03-13T00:10:08;100076.09;;;14.01;96.97
46464;BME280;32161;48.148;-1.554;2023-03-13T00:12:36;100081.03;;;13.99;97.37
46464;BME280;32161;48.148;-1.554;2023-03-13T00:15:04;100081.84;;;14.05;96.38
46464;BME280;32161;48.148;-1.554;2023-03-13T00:17:31;100069.03;;;14.21;95.16
46464;BME280;32161;48.148;-1.554;2023-03-13T00:19:59;100062.50;;;14.27;94.86
46464;BME280;32161;48.148;-1.554;2023-03-13T00:22:27;100060.81;;;14.15;94.60
46464;BME280;32161;48.148;-1.554;2023-03-13T00:24:56;100034.81;;;14.03;95.87
46464;BME280;32161;48.148;-1.554;2023-03-13T00:27:24;100039.75;;;14.06;95.49
46464;BME280;32161;48.148;-1.554;2023-03-13T00:29:51;100030.47;;;14.07;95.53
46464;BME280;32161;48.148;-1.554;2023-03-13T00:32:19;100038.09;;;13.95;95.84
46464;BME280;32161;48.148;-1.554;2023-03-13T00:34:46;100031.56;;;14.06;95.00
46464;BME280;32161;48.148;-1.554;2023-03-13T00:37:14;100034.59;;;14.25;93.77
46464;BME280;32161;48.148;-1.554;2023-03-13T00:39:41;100043.88;;;14.29;93.26
46464;BME280;32161;48.148;-1.554;2023-03-13T00:42:11;100031.28;;;14.17;93.37
46464;BME280;32161;48.148;-1.554;2023-03-13T00:44:39;100033.75;;;14.14;93.61
46464;BME280;32161;48.148;-1.554;2023-03-13T00:47:06;100029.66;;;14.37;92.78
46464;BME280;32161;48.148;-1.554;2023-03-13T00:49:34;100044.97;;;14.17;93.57
46464;BME280;32161;48.148;-1.554;2023-03-13T00:52:01;100022.53;;;14.10;94.57
46464;BME280;32161;48.148;-1.554;2023-03-13T00:54:29;100026.06;;;13.85;95.80
46464;BME280;32161;48.148;-1.554;2023-03-13T00:56:57;100033.78;;;14.19;94.57
46464;BME280;32161;48.148;-1.554;2023-03-13T00:59:25;100029.38;;;14.08;94.06
46464;BME280;32161;48.148;-1.554;2023-03-13T01:01:53;100024.47;;;14.15;94.37
46464;BME280;32161;48.148;-1.554;2023-03-13T01:04:21;100034.31;;;14.31;93.58
46464;BME280;32161;48.148;-1.554;2023-03-13T01:06:48;100022.28;;;14.07;93.69
46464;BME280;32161;48.148;-1.554;2023-03-13T01:09:16;100044.69;;;14.09;94.21
46464;BME280;32161;48.148;-1.554;2023-03-13T01:11:45;100039.81;;;14.31;93.16
46464;BME280;32161;48.148;-1.554;2023-03-13T01:14:15;100031.06;;;14.39;92.32
46464;BME280;32161;48.148;-1.554;2023-03-13T01:16:44;100028.88;;;14.31;92.36
46464;BME280;32161;48.148;-1.554;2023-03-13T01:19:15;100034.59;;;14.14;93.15
46464;BME280;32161;48.148;-1.554;2023-03-13T01:21:44;100016.56;;;14.29;92.52
46464;BME280;32161;48.148;-1.554;2023-03-13T01:24:12;100018.47;;;14.28;91.75
46464;BME280;32161;48.148;-1.554;2023-03-13T01:26:40;100015.19;;;14.31;91.87
46464;BME280;32161;48.148;-1.554;2023-03-13T01:29:07;100011.63;;;14.15;92.09
46464;BME280;32161;48.148;-1.554;2023-03-13T01:31:35;100004.22;;;14.01;92.78
46464;BME280;32161;48.148;-1.554;2023-03-13T01:34:05;100011.91;;;14.19;92.29
46464;BME280;32161;48.148;-1.554;2023-03-13T01:36:35;100008.09;;;14.35;90.95
46464;BME280;32161;48.148;-1.554;2023-03-13T01:39:03;99995.78;;;14.38;90.73
46464;BME280;32161;48.148;-1.554;2023-03-13T01:41:31;99981.03;;;14.24;90.96
46464;BME280;32161;48.148;-1.554;2023-03-13T01:43:59;99986.75;;;14.32;90.63
46464;BME280;32161;48.148;-1.554;2023-03-13T01:46:28;99986.22;;;14.35;90.99
46464;BME280;32161;48.148;-1.554;2023-03-13T01:49:00;99985.41;;;14.55;89.45
46464;BME280;32161;48.148;-1.554;2023-03-13T01:51:34;99967.06;;;14.35;90.81
46464;BME280;32161;48.148;-1.554;2023-03-13T01:54:06;99975.84;;;14.37;90.47
46464;BME280;32161;48.148;-1.554;2023-03-13T01:56:39;99975.28;;;14.46;89.89
46464;BME280;32161;48.148;-1.554;2023-03-13T01:59:12;99975.28;;;14.51;89.85
46464;BME280;32161;48.148;-1.554;2023-03-13T02:01:41;99956.16;;;14.51;89.88
46464;BME280;32161;48.148;-1.554;2023-03-13T02:04:10;99957.25;;;14.50;89.60
46464;BME280;32161;48.148;-1.554;2023-03-13T02:06:42;99941.63;;;14.40;90.21
46464;BME280;32161;48.148;-1.554;2023-03-13T02:09:16;99955.88;;;14.52;89.75
46464;BME280;32161;48.148;-1.554;2023-03-13T02:11:48;99949.31;;;14.38;90.73
46464;BME280;32161;48.148;-1.554;2023-03-13T02:14:21;99948.75;;;14.56;90.00
46464;BME280;32161;48.148;-1.554;2023-03-13T02:16:50;99933.47;;;14.50;90.67
46464;BME280;32161;48.148;-1.554;2023-03-13T02:19:24;99931.81;;;14.39;90.64
46464;BME280;32161;48.148;-1.554;2023-03-13T02:22:01;99929.09;;;14.49;91.17
46464;BME280;32161;48.148;-1.554;2023-03-13T02:24:36;99927.19;;;14.50;91.09
46464;BME280;32161;48.148;-1.554;2023-03-13T02:27:09;99919.50;;;14.41;91.75
46464;BME280;32161;48.148;-1.554;2023-03-13T02:29:37;99910.19;;;14.48;92.54
46464;BME280;32161;48.148;-1.554;2023-03-13T02:32:06;99910.19;;;14.58;91.92
46464;BME280;32161;48.148;-1.554;2023-03-13T02:34:47;99903.41;;;14.30;94.00
46464;BME280;32161;48.148;-1.554;2023-03-13T02:37:15;99899.28;;;14.32;94.79
46464;BME280;32161;48.148;-1.554;2023-03-13T02:39:46;99897.13;;;14.19;96.61
46464;BME280;32161;48.148;-1.554;2023-03-13T02:42:17;99891.09;;;14.22;97.36
46464;BME280;32161;48.148;-1.554;2023-03-13T02:44:46;99879.09;;;13.98;99.39
46464;BME280;32161;48.148;-1.554;2023-03-13T02:47:18;99882.63;;;13.62;100.00
46464;BME280;32161;48.148;-1.554;2023-03-13T02:49:47;99878.53;;;13.75;100.00
46464;BME280;32161;48.148;-1.554;2023-03-13T02:52:20;99878.53;;;13.75;100.00
46464;BME280;32161;48.148;-1.554;2023-03-13T02:54:55;99884.53;;;13.67;100.00
46464;BME280;32161;48.148;-1.554;2023-03-13T02:57:24;99870.88;;;13.62;100.00
46464;BME280;32161;48.148;-1.554;2023-03-13T02:59:51;99864.88;;;13.55;100.00
46464;BME280;32161;48.148;-1.554;2023-03-13T03:02:19;99877.44;;;13.51;100.00
46464;BME280;32161;48.148;-1.554;2023-03-13T03:04:49;99864.84;;;13.39;100.00
46464;BME280;32161;48.148;-1.554;2023-03-13T03:07:16;99856.63;;;13.24;100.00
46464;BME280;32161;48.148;-1.554;2023-03-13T03:09:44;99845.72;;;13.24;100.00
46464;BME280;32161;48.148;-1.554;2023-03-13T03:12:11;99852.44;;;13.01;100.00
46464;BME280;32161;48.148;-1.554;2023-03-13T03:14:39;99855.50;;;13.20;100.00
46464;BME280;32161;48.148;-1.554;2023-03-13T03:17:06;99854.19;;;13.28;100.00
46464;BME280;32161;48.148;-1.554;2023-03-13T03:19:34;99851.94;;;13.19;100.00
46464;BME280;32161;48.148;-1.554;2023-03-13T03:22:03;99848.44;;;13.24;100.00
46464;BME280;32161;48.148;-1.554;2023-03-13T03:24:31;99832.03;;;13.19;100.00
46464;BME280;32161;48.148;-1.554;2023-03-13T03:26:58;99833.72;;;13.30;100.00
46464;BME280;32161;48.148;-1.554;2023-03-13T03:29:26;99830.34;;;13.03;100.00
46464;BME280;32161;48.148;-1.554;2023-03-13T03:31:54;99827.09;;;13.11;100.00
46464;BME280;32161;48.148;-1.554;2023-03-13T03:34:21;99834.19;;;13.12;100.00
46464;BME280;32161;48.148;-1.554;2023-03-13T03:36:49;99828.50;;;13.18;100.00
46464;BME280;32161;48.148;-1.554;2023-03-13T03:39:18;99833.38;;;13.22;100.00
46464;BME280;32161;48.148;-1.554;2023-03-13T03:41:45;99839.44;;;13.24;100.00
46464;BME280;32161;48.148;-1.554;2023-03-13T03:44:13;99834.75;;;13.19;100.00
46464;BME280;32161;48.148;-1.554;2023-03-13T03:46:41;99834.50;;;13.26;100.00
46464;BME280;32161;48.148;-1.554;2023-03-13T03:49:08;99825.78;;;13.24;100.00
46464;BME280;32161;48.148;-1.554;2023-03-13T03:51:36;99823.81;;;13.14;100.00
46464;BME280;32161;48.148;-1.554;2023-03-13T03:54:03;99828.19;;;13.05;100.00
46464;BME280;32161;48.148;-1.554;2023-03-13T03:56:32;99826.00;;;13.07;100.00
46464;BME280;32161;48.148;-1.554;2023-03-13T03:59:00;99835.53;;;13.14;100.00
46464;BME280;32161;48.148;-1.554;2023-03-13T04:01:27;99830.72;;;13.27;100.00
46464;BME280;32161;48.148;-1.554;2023-03-13T04:03:55;99831.47;;;13.07;100.00
46464;BME280;32161;48.148;-1.554;2023-03-13T04:06:22;99838.84;;;13.16;100.00
46464;BME280;32161;48.148;-1.554;2023-03-13T04:08:50;99832.56;;;13.21;100.00
46464;BME280;32161;48.148;-1.554;2023-03-13T04:11:17;99824.97;;;13.28;100.00
46464;BME280;32161;48.148;-1.554;2023-03-13T04:13:46;99820.06;;;13.30;100.00
46464;BME280;32161;48.148;-1.554;2023-03-13T04:16:14;99823.81;;;13.14;100.00
46464;BME280;32161;48.148;-1.554;2023-03-13T04:18:41;99813.19;;;13.12;100.00
46464;BME280;32161;48.148;-1.554;2023-03-13T04:21:09;99822.47;;;13.22;100.00
46464;BME280;32161;48.148;-1.554;2023-03-13T04:23:36;99814.63;;;13.30;100.00
46464;BME280;32161;48.148;-1.554;2023-03-13T04:26:04;99826.28;;;13.20;100.00
46464;BME280;32161;48.148;-1.554;2023-03-13T04:28:32;99820.03;;;13.15;100.00
46464;BME280;32161;48.148;-1.554;2023-03-13T04:31:00;99831.47;;;13.12;100.00
46464;BME280;32161;48.148;-1.554;2023-03-13T04:33:28;99836.47;;;13.30;100.00
46464;BME280;32161;48.148;-1.554;2023-03-13T04:35:56;99833.44;;;13.32;100.00
46464;BME280;32161;48.148;-1.554;2023-03-13T04:38:24;99831.53;;;13.27;100.00
46464;BME280;32161;48.148;-1.554;2023-03-13T04:40:51;99834.25;;;13.27;100.00
46464;BME280;32161;48.148;-1.554;2023-03-13T04:43:19;99820.63;;;13.27;100.00
46464;BME280;32161;48.148;-1.554;2023-03-13T04:45:46;99827.97;;;13.32;100.00
46464;BME280;32161;48.148;-1.554;2023-03-13T04:48:17;99824.13;;;13.23;100.00
46464;BME280;32161;48.148;-1.554;2023-03-13T04:50:44;99821.19;;;13.34;100.00
46464;BME280;32161;48.148;-1.554;2023-03-13T04:53:13;99824.97;;;13.28;100.00
46464;BME280;32161;48.148;-1.554;2023-03-13T04:55:41;99809.69;;;13.37;100.00
46464;BME280;32161;48.148;-1.554;2023-03-13T04:58:09;99815.09;;;13.17;100.00
46464;BME280;32161;48.148;-1.554;2023-03-13T05:00:39;99815.69;;;13.29;100.00
46464;BME280;32161;48.148;-1.554;2023-03-13T05:03:07;99807.53;;;13.34;100.00
46464;BME280;32161;48.148;-1.554;2023-03-13T05:05:37;99801.50;;;13.32;100.00
46464;BME280;32161;48.148;-1.554;2023-03-13T05:08:05;99794.97;;;13.38;100.00
46464;BME280;32161;48.148;-1.554;2023-03-13T05:10:33;99794.97;;;13.38;100.00
46464;BME280;32161;48.148;-1.554;2023-03-13T05:13:01;99790.06;;;13.46;100.00
46464;BME280;32161;48.148;-1.554;2023-03-13T05:15:28;99778.06;;;13.41;100.00
46464;BME280;32161;48.148;-1.554;2023-03-13T05:17:56;99770.94;;;13.40;100.00
46464;BME280;32161;48.148;-1.554;2023-03-13T05:20:23;99769.31;;;13.34;100.00
46464;BME280;32161;48.148;-1.554;2023-03-13T05:22:52;99762.22;;;13.28;100.00
46464;BME280;32161;48.148;-1.554;2023-03-13T05:25:20;99752.91;;;13.44;100.00
46464;BME280;32161;48.148;-1.554;2023-03-13T05:27:47;99758.88;;;13.21;100.00
46464;BME280;32161;48.148;-1.554;2023-03-13T05:30:15;99760.84;;;13.31;100.00
46464;BME280;32161;48.148;-1.554;2023-03-13T05:32:44;99756.75;;;13.38;100.00
46464;BME280;32161;48.148;-1.554;2023-03-13T05:35:12;99758.09;;;13.41;100.00
46464;BME280;32161;48.148;-1.554;2023-03-13T05:37:40;99752.91;;;13.29;100.00
46464;BME280;32161;48.148;-1.554;2023-03-13T05:40:11;99754.84;;;13.24;100.00
46464;BME280;32161;48.148;-1.554;2023-03-13T05:42:39;99744.69;;;13.09;100.00
46464;BME280;32161;48.148;-1.554;2023-03-13T05:45:08;99744.75;;;13.24;100.00
46464;BME280;32161;48.148;-1.554;2023-03-13T05:47:36;99752.63;;;13.26;100.00
46464;BME280;32161;48.148;-1.554;2023-03-13T05:50:06;99739.28;;;13.24;100.00
46464;BME280;32161;48.148;-1.554;2023-03-13T05:52:34;99733.56;;;13.31;100.00
46464;BME280;32161;48.148;-1.554;2023-03-13T05:55:02;99728.06;;;13.26;100.00
46464;BME280;32161;48.148;-1.554;2023-03-13T05:57:31;99733.03;;;13.34;100.00
46464;BME280;32161;48.148;-1.554;2023-03-13T05:59:58;99725.63;;;13.19;100.00
46464;BME280;32161;48.148;-1.554;2023-03-13T06:02:26;99725.09;;;13.27;100.00
46464;BME280;32161;48.148;-1.554;2023-03-13T06:04:54;99723.47;;;13.31;100.00
46464;BME280;32161;48.148;-1.554;2023-03-13T06:07:21;99708.44;;;13.29;100.00
46464;BME280;32161;48.148;-1.554;2023-03-13T06:09:49;99705.44;;;13.30;100.00
46464;BME280;32161;48.148;-1.554;2023-03-13T06:12:16;99707.09;;;13.31;100.00
46464;BME280;32161;48.148;-1.554;2023-03-13T06:14:45;99694.78;;;13.18;100.00
46464;BME280;32161;48.148;-1.554;2023-03-13T06:17:13;99681.69;;;13.15;100.00
46464;BME280;32161;48.148;-1.554;2023-03-13T06:19:40;99693.16;;;13.07;100.00
46464;BME280;32161;48.148;-1.554;2023-03-13T06:22:08;99687.66;;;13.02;100.00
46464;BME280;32161;48.148;-1.554;2023-03-13T06:24:35;99684.41;;;12.85;100.00
46464;BME280;32161;48.148;-1.554;2023-03-13T06:27:03;99688.22;;;12.89;100.00
46464;BME280;32161;48.148;-1.554;2023-03-13T06:29:30;99688.75;;;13.06;100.00
46464;BME280;32161;48.148;-1.554;2023-03-13T06:31:59;99686.84;;;13.02;100.00
46464;BME280;32161;48.148;-1.554;2023-03-13T06:34:27;99688.78;;;13.11;100.00
46464;BME280;32161;48.148;-1.554;2023-03-13T06:36:55;99671.84;;;13.19;100.00
46464;BME280;32161;48.148;-1.554;2023-03-13T06:39:24;99672.41;;;12.96;100.00
46464;BME280;32161;48.148;-1.554;2023-03-13T06:41:52;99668.31;;;13.09;100.00
46464;BME280;32161;48.148;-1.554;2023-03-13T06:44:19;99669.38;;;12.98;100.00
46464;BME280;32161;48.148;-1.554;2023-03-13T06:46:47;99666.41;;;12.99;100.00
46464;BME280;32161;48.148;-1.554;2023-03-13T06:49:16;99650.84;;;13.25;100.00
46464;BME280;32161;48.148;-1.554;2023-03-13T06:51:43;99647.03;;;13.11;100.00
46464;BME280;32161;48.148;-1.554;2023-03-13T06:54:11;99651.94;;;13.24;100.00
46464;BME280;32161;48.148;-1.554;2023-03-13T06:56:38;99651.94;;;13.34;100.00
46464;BME280;32161;48.148;-1.554;2023-03-13T06:59:06;99642.38;;;13.22;100.00
46464;BME280;32161;48.148;-1.554;2023-03-13T07:01:34;99645.94;;;13.07;100.00
46464;BME280;32161;48.148;-1.554;2023-03-13T07:04:01;99656.84;;;13.02;100.00
46464;BME280;32161;48.148;-1.554;2023-03-13T07:06:30;99641.84;;;12.84;100.00
46464;BME280;32161;48.148;-1.554;2023-03-13T07:08:58;99642.38;;;12.86;100.00
46464;BME280;32161;48.148;-1.554;2023-03-13T07:11:25;99642.09;;;12.87;100.00
46464;BME280;32161;48.148;-1.554;2023-03-13T07:13:54;99650.03;;;12.94;100.00
46464;BME280;32161;48.148;-1.554;2023-03-13T07:16:22;99637.19;;;13.10;100.00
46464;BME280;32161;48.148;-1.554;2023-03-13T07:18:50;99632.84;;;13.04;100.00
46464;BME280;32161;48.148;-1.554;2023-03-13T07:21:18;99632.84;;;13.19;100.00
46464;BME280;32161;48.148;-1.554;2023-03-13T07:23:46;99632.56;;;13.05;100.00
46464;BME280;32161;48.148;-1.554;2023-03-13T07:26:15;99633.66;;;13.09;100.00
46464;BME280;32161;48.148;-1.554;2023-03-13T07:28:42;99620.81;;;13.10;100.00
46464;BME280;32161;48.148;-1.554;2023-03-13T07:31:13;99616.47;;;13.19;98.90
46464;BME280;32161;48.148;-1.554;2023-03-13T07:33:41;99613.22;;;12.97;100.00
46464;BME280;32161;48.148;-1.554;2023-03-13T07:36:10;99618.38;;;13.08;99.92
46464;BME280;32161;48.148;-1.554;2023-03-13T07:38:38;99618.09;;;13.20;98.98
46464;BME280;32161;48.148;-1.554;2023-03-13T07:41:09;99611.00;;;13.14;98.79
46464;BME280;32161;48.148;-1.554;2023-03-13T07:43:37;99597.91;;;13.06;99.36
46464;BME280;32161;48.148;-1.554;2023-03-13T07:46:07;99607.50;;;12.88;100.00
46464;BME280;32161;48.148;-1.554;2023-03-13T07:48:36;99606.09;;;13.06;100.00
46464;BME280;32161;48.148;-1.554;2023-03-13T07:51:07;99610.47;;;13.12;99.56
46464;BME280;32161;48.148;-1.554;2023-03-13T07:53:35;99593.56;;;13.00;100.00
46464;BME280;32161;48.148;-1.554;2023-03-13T07:56:05;99600.13;;;12.93;100.00
46464;BME280;32161;48.148;-1.554;2023-03-13T07:58:36;99597.06;;;13.20;99.64
46464;BME280;32161;48.148;-1.554;2023-03-13T08:01:09;99601.19;;;13.28;98.88
46464;BME280;32161;48.148;-1.554;2023-03-13T08:03:37;99598.19;;;13.19;98.96
46464;BME280;32161;48.148;-1.554;2023-03-13T08:06:07;99594.63;;;13.29;98.42
46464;BME280;32161;48.148;-1.554;2023-03-13T08:08:35;99598.72;;;13.32;98.56
46464;BME280;32161;48.148;-1.554;2023-03-13T08:11:05;99599.00;;;13.25;98.36
46464;BME280;32161;48.148;-1.554;2023-03-13T08:13:35;99585.88;;;13.42;98.04
46464;BME280;32161;48.148;-1.554;2023-03-13T08:16:05;99591.06;;;13.39;95.51
46464;BME280;32161;48.148;-1.554;2023-03-13T08:18:35;99588.63;;;13.32;95.30
46464;BME280;32161;48.148;-1.554;2023-03-13T08:21:05;99586.19;;;13.31;94.13
46464;BME280;32161;48.148;-1.554;2023-03-13T08:23:33;99579.31;;;13.43;94.01
46464;BME280;32161;48.148;-1.554;2023-03-13T08:26:03;99568.63;;;13.52;92.38
46464;BME280;32161;48.148;-1.554;2023-03-13T08:28:31;99577.69;;;13.42;93.54
46464;BME280;32161;48.148;-1.554;2023-03-13T08:31:07;99570.53;;;13.52;94.01
46464;BME280;32161;48.148;-1.554;2023-03-13T08:33:35;99555.50;;;13.64;93.75
46464;BME280;32161;48.148;-1.554;2023-03-13T08:36:10;99559.31;;;13.63;94.48
46464;BME280;32161;48.148;-1.554;2023-03-13T08:38:39;99543.25;;;13.57;93.83
46464;BME280;32161;48.148;-1.554;2023-03-13T08:41:07;99546.53;;;13.49;94.20
46464;BME280;32161;48.148;-1.554;2023-03-13T08:43:35;99537.94;;;13.76;93.27
46464;BME280;32161;48.148;-1.554;2023-03-13T08:46:04;99540.19;;;13.63;93.09
46464;BME280;32161;48.148;-1.554;2023-03-13T08:48:32;99535.56;;;13.59;93.50
46464;BME280;32161;48.148;-1.554;2023-03-13T08:51:01;99549.72;;;13.76;93.95
46464;BME280;32161;48.148;-1.554;2023-03-13T08:53:29;99547.81;;;13.72;93.76
46464;BME280;32161;48.148;-1.554;2023-03-13T08:55:57;99537.34;;;13.89;92.43
46464;BME280;32161;48.148;-1.554;2023-03-13T08:58:26;99529.75;;;13.81;91.69
46464;BME280;32161;48.148;-1.554;2023-03-13T09:00:54;99530.25;;;13.88;92.58
46464;BME280;32161;48.148;-1.554;2023-03-13T09:03:23;99530.22;;;13.93;91.08
46464;BME280;32161;48.148;-1.554;2023-03-13T09:05:50;99520.16;;;13.88;90.94
46464;BME280;32161;48.148;-1.554;2023-03-13T09:08:18;99519.50;;;14.07;88.12
46464;BME280;32161;48.148;-1.554;2023-03-13T09:10:46;99517.63;;;13.97;87.19
46464;BME280;32161;48.148;-1.554;2023-03-13T09:13:13;99515.09;;;14.06;85.50
46464;BME280;32161;48.148;-1.554;2023-03-13T09:15:41;99515.19;;;13.90;86.20
46464;BME280;32161;48.148;-1.554;2023-03-13T09:18:08;99516.31;;;13.89;86.65
46464;BME280;32161;48.148;-1.554;2023-03-13T09:20:37;99513.28;;;13.96;85.89
46464;BME280;32161;48.148;-1.554;2023-03-13T09:23:05;99491.25;;;13.77;84.58
46464;BME280;32161;48.148;-1.554;2023-03-13T09:25:32;99491.13;;;13.98;84.39
46464;BME280;32161;48.148;-1.554;2023-03-13T09:28:00;99503.09;;;14.02;83.69
46464;BME280;32161;48.148;-1.554;2023-03-13T09:30:27;99496.31;;;13.99;82.68
46464;BME280;32161;48.148;-1.554;2023-03-13T09:32:55;99492.69;;;14.09;81.59
46464;BME280;32161;48.148;-1.554;2023-03-13T09:35:23;99510.19;;;14.08;82.57
46464;BME280;32161;48.148;-1.554;2023-03-13T09:37:51;99495.97;;;14.06;82.04
46464;BME280;32161;48.148;-1.554;2023-03-13T09:40:21;99486.72;;;14.02;82.22
46464;BME280;32161;48.148;-1.554;2023-03-13T09:42:53;99488.72;;;14.25;83.20
46464;BME280;32161;48.148;-1.554;2023-03-13T09:45:29;99493.38;;;14.25;82.50
46464;BME280;32161;48.148;-1.554;2023-03-13T09:48:02;99500.69;;;14.34;81.60
46464;BME280;32161;48.148;-1.554;2023-03-13T09:50:34;99502.75;;;14.19;80.55
46464;BME280;32161;48.148;-1.554;2023-03-13T09:53:12;99499.63;;;14.30;83.05
46464;BME280;32161;48.148;-1.554;2023-03-13T09:55:43;99491.47;;;14.25;81.19
46464;BME280;32161;48.148;-1.554;2023-03-13T09:58:15;99480.03;;;14.57;80.58
46464;BME280;32161;48.148;-1.554;2023-03-13T10:00:47;99494.69;;;14.67;79.23
46464;BME280;32161;48.148;-1.554;2023-03-13T10:03:22;99476.03;;;14.74;78.57
46464;BME280;32161;48.148;-1.554;2023-03-13T10:05:56;99494.06;;;14.75;79.42
46464;BME280;32161;48.148;-1.554;2023-03-13T10:08:30;99485.91;;;14.70;80.00
46464;BME280;32161;48.148;-1.554;2023-03-13T10:11:02;99487.88;;;14.93;78.11
46464;BME280;32161;48.148;-1.554;2023-03-13T10:13:37;99477.47;;;14.66;78.43
46464;BME280;32161;48.148;-1.554;2023-03-13T10:16:09;99511.53;;;14.79;78.12
46464;BME280;32161;48.148;-1.554;2023-03-13T10:18:41;99497.97;;;14.69;78.34
46464;BME280;32161;48.148;-1.554;2023-03-13T10:21:13;99497.72;;;14.65;77.97
46464;BME280;32161;48.148;-1.554;2023-03-13T10:23:49;99488.72;;;14.64;77.92
46464;BME280;32161;48.148;-1.554;2023-03-13T10:26:22;99490.09;;;14.62;79.68
46464;BME280;32161;48.148;-1.554;2023-03-13T10:28:51;99474.34;;;14.78;80.93
46464;BME280;32161;48.148;-1.554;2023-03-13T10:31:24;99482.47;;;14.88;81.06
46464;BME280;32161;48.148;-1.554;2023-03-13T10:33:54;99478.63;;;15.13;78.51
46464;BME280;32161;48.148;-1.554;2023-03-13T10:36:39;99481.75;;;15.01;80.29
46464;BME280;32161;48.148;-1.554;2023-03-13T10:39:15;99488.50;;;15.33;75.77
46464;BME280;32161;48.148;-1.554;2023-03-13T10:41:43;99472.06;;;15.57;75.78
46464;BME280;32161;48.148;-1.554;2023-03-13T10:44:16;99472.34;;;15.55;73.68
46464;BME280;32161;48.148;-1.554;2023-03-13T10:46:47;99465.06;;;15.89;74.25
46464;BME280;32161;48.148;-1.554;2023-03-13T10:49:17;99472.38;;;15.74;73.36
46464;BME280;32161;48.148;-1.554;2023-03-13T10:51:47;99464.75;;;15.71;72.34
46464;BME280;32161;48.148;-1.554;2023-03-13T10:54:22;99461.69;;;15.54;73.69
46464;BME280;32161;48.148;-1.554;2023-03-13T10:57:06;99461.75;;;15.30;75.50
46464;BME280;32161;48.148;-1.554;2023-03-13T10:59:39;99456.19;;;15.35;75.13
46464;BME280;32161;48.148;-1.554;2023-03-13T11:02:22;99469.53;;;15.18;77.35
46464;BME280;32161;48.148;-1.554;2023-03-13T11:04:50;99458.56;;;15.18;77.92
46464;BME280;32161;48.148;-1.554;2023-03-13T11:07:26;99455.19;;;15.26;78.64
46464;BME280;32161;48.148;-1.554;2023-03-13T11:10:05;99448.13;;;15.44;78.28
46464;BME280;32161;48.148;-1.554;2023-03-13T11:12:44;99450.34;;;15.42;76.09
46464;BME280;32161;48.148;-1.554;2023-03-13T11:15:15;99441.53;;;15.45;76.68
46464;BME280;32161;48.148;-1.554;2023-03-13T11:17:49;99443.97;;;15.70;75.00
46464;BME280;32161;48.148;-1.554;2023-03-13T11:20:24;99441.03;;;15.43;74.14
46464;BME280;32161;48.148;-1.554;2023-03-13T11:23:04;99434.75;;;15.18;74.54
46464;BME280;32161;48.148;-1.554;2023-03-13T11:25:42;99442.00;;;15.52;74.17
46464;BME280;32161;48.148;-1.554;2023-03-13T11:28:34;99436.34;;;15.43;75.87
46464;BME280;32161;48.148;-1.554;2023-03-13T11:31:10;99422.38;;;15.63;72.85
46464;BME280;32161;48.148;-1.554;2023-03-13T11:33:47;99416.16;;;15.58;72.79
46464;BME280;32161;48.148;-1.554;2023-03-13T11:36:21;99419.31;;;15.70;71.86
46464;BME280;32161;48.148;-1.554;2023-03-13T11:38:54;99404.09;;;15.59;71.97
46464;BME280;32161;48.148;-1.554;2023-03-13T11:41:47;99408.03;;;15.72;71.42
46464;BME280;32161;48.148;-1.554;2023-03-13T11:44:28;99400.84;;;15.57;70.50
46464;BME280;32161;48.148;-1.554;2023-03-13T11:47:13;99392.69;;;15.33;70.03
46464;BME280;32161;48.148;-1.554;2023-03-13T11:52:47;99385.94;;;15.44;69.67
46464;BME280;32161;48.148;-1.554;2023-03-13T11:55:33;99366.97;;;15.53;69.38
46464;BME280;32161;48.148;-1.554;2023-03-13T11:58:23;99358.53;;;15.68;69.78
46464;BME280;32161;48.148;-1.554;2023-03-13T12:00:57;99356.94;;;15.62;69.57
46464;BME280;32161;48.148;-1.554;2023-03-13T12:03:35;99356.38;;;15.65;70.63
46464;BME280;32161;48.148;-1.554;2023-03-13T12:06:09;99348.97;;;15.47;70.52
46464;BME280;32161;48.148;-1.554;2023-03-13T12:08:43;99333.69;;;15.59;72.01
46464;BME280;32161;48.148;-1.554;2023-03-13T12:11:17;99348.75;;;15.95;70.50
46464;BME280;32161;48.148;-1.554;2023-03-13T12:13:51;99343.88;;;16.24;68.07
46464;BME280;32161;48.148;-1.554;2023-03-13T12:16:29;99335.22;;;16.17;67.74
46464;BME280;32161;48.148;-1.554;2023-03-13T12:18:59;99330.31;;;16.14;66.47
46464;BME280;32161;48.148;-1.554;2023-03-13T12:21:30;99335.09;;;16.08;67.16
46464;BME280;32161;48.148;-1.554;2023-03-13T12:24:10;99330.09;;;15.97;68.09
46464;BME280;32161;48.148;-1.554;2023-03-13T12:26:44;99313.22;;;15.57;66.22
46464;BME280;32161;48.148;-1.554;2023-03-13T12:29:18;99309.50;;;15.48;67.84
46464;BME280;32161;48.148;-1.554;2023-03-13T12:31:56;99317.78;;;15.61;67.23
46464;BME280;32161;48.148;-1.554;2023-03-13T12:34:29;99301.28;;;15.67;67.29
46464;BME280;32161;48.148;-1.554;2023-03-13T12:37:04;99286.53;;;15.62;67.22
46464;BME280;32161;48.148;-1.554;2023-03-13T12:39:38;99284.16;;;15.56;68.34
46464;BME280;32161;48.148;-1.554;2023-03-13T12:42:19;99285.28;;;15.74;70.61
46464;BME280;32161;48.148;-1.554;2023-03-13T12:44:49;99269.97;;;15.73;69.57
46464;BME280;32161;48.148;-1.554;2023-03-13T12:47:22;99257.34;;;16.04;71.09
46464;BME280;32161;48.148;-1.554;2023-03-13T12:50:10;99261.00;;;16.00;69.94
46464;BME280;32161;48.148;-1.554;2023-03-13T12:53:11;99268.19;;;16.09;68.72
46464;BME280;32161;48.148;-1.554;2023-03-13T12:56:07;99244.94;;;15.93;69.61
46464;BME280;32161;48.148;-1.554;2023-03-13T12:58:47;99258.75;;;16.02;68.69
46464;BME280;32161;48.148;-1.554;2023-03-13T13:01:29;99243.94;;;16.03;68.22
46464;BME280;32161;48.148;-1.554;2023-03-13T13:04:00;99252.34;;;15.93;66.25